Primos-Secane, Pennsylvania
Current Conditions -  °F | °C
As of 6:54 AM on Wednesday 28 Jan 2015 (Local Time) from KPHL Reporting Station
Few Clouds Few Clouds  
Wind Chill:   Ceiling: Unl
Heat Index: 20°   Visibility: 10mi
Dew Point: -2°   Wind: 16mph
Humidity: 38%   Direction: 310°NW
Pressure: 30.07"   Gusts: 20mph
Location:  39.9228°N, 75.2984°W
Report Text: KPHL 281154Z 31014G17KT 10SM FEW120 FEW280 M07/M19 A3007 RMK AO2 SLP183 70001 T10671189 11061 21067 53024 $
Loading
Personal Weather Stations






























Interactive Weather Map New forecast layout! Learn more

10-Day Weather Forecast

Advertisements
Track Severe Weather on mobile